createdAt,value
2019-04-27T00:01:40.645Z,5.90
2019-04-27T00:04:16.231Z,5.90
2019-04-27T00:06:46.614Z,5.40
2019-04-27T00:09:34.610Z,5.63
2019-04-27T00:12:07.438Z,5.33
2019-04-27T00:14:36.014Z,5.37
2019-04-27T00:17:41.248Z,4.70
2019-04-27T00:19:55.981Z,5.83
2019-04-27T00:22:33.340Z,7.57
2019-04-27T00:25:03.537Z,5.70
2019-04-27T00:27:33.438Z,5.43
2019-04-27T00:30:03.724Z,5.50
2019-04-27T00:32:33.223Z,8.07
2019-04-27T00:35:03.530Z,5.00
2019-04-27T00:37:34.014Z,7.57
2019-04-27T00:40:04.289Z,7.23
2019-04-27T00:42:33.362Z,6.80
2019-04-27T00:45:02.974Z,4.27
2019-04-27T00:47:34.903Z,6.67
2019-04-27T00:50:03.613Z,6.43
2019-04-27T00:52:32.591Z,7.73
2019-04-27T00:55:03.150Z,7.53
2019-04-27T00:57:39.078Z,7.87
2019-04-27T01:00:09.368Z,7.37
2019-04-27T01:02:45.619Z,5.00
2019-04-27T01:05:15.666Z,7.20
2019-04-27T01:07:44.061Z,7.13
2019-04-27T01:10:13.486Z,8.77
2019-04-27T01:12:42.937Z,7.13
2019-04-27T01:15:11.541Z,7.37
2019-04-27T01:17:39.951Z,6.00
2019-04-27T01:20:08.714Z,7.90
2019-04-27T01:22:37.151Z,7.20
2019-04-27T01:25:06.610Z,9.67
2019-04-27T01:27:52.940Z,7.20
2019-04-27T01:30:22.972Z,11.03
2019-04-27T01:32:51.392Z,8.90
2019-04-27T01:35:19.828Z,4.37
2019-04-27T01:37:48.756Z,8.23
2019-04-27T01:40:17.134Z,7.60
2019-04-27T01:42:45.549Z,6.17
2019-04-27T01:45:13.956Z,7.63
2019-04-27T01:47:42.336Z,8.10
2019-04-27T01:50:10.751Z,10.97
2019-04-27T01:52:39.179Z,9.70
2019-04-27T01:55:08.604Z,8.80
2019-04-27T01:57:38.638Z,5.37
2019-04-27T02:00:27.351Z,7.40
2019-04-27T02:02:57.362Z,7.23
2019-04-27T02:05:30.562Z,5.93
2019-04-27T02:07:59.379Z,7.87
2019-04-27T02:10:29.292Z,7.83
2019-04-27T02:12:58.704Z,8.20
2019-04-27T02:15:27.222Z,6.23
2019-04-27T02:17:55.668Z,8.17
2019-04-27T02:20:24.043Z,8.53
2019-04-27T02:22:52.459Z,9.90
2019-04-27T02:25:21.092Z,6.77
2019-04-27T02:27:51.320Z,8.33
2019-04-27T02:30:24.333Z,5.47
2019-04-27T02:33:12.952Z,10.53
2019-04-27T02:35:42.016Z,6.07
2019-04-27T02:38:10.643Z,7.87
2019-04-27T02:40:50.091Z,5.30
2019-04-27T02:43:20.539Z,7.83
2019-04-27T02:45:50.341Z,7.97
2019-04-27T02:48:19.925Z,9.87
2019-04-27T02:50:50.211Z,6.70
2019-04-27T02:53:20.304Z,7.80
2019-04-27T02:55:49.960Z,5.17
2019-04-27T02:58:21.408Z,6.93
2019-04-27T03:00:50.172Z,6.20
2019-04-27T03:03:20.334Z,7.70
2019-04-27T03:05:50.253Z,7.63
2019-04-27T03:08:20.027Z,10.10
2019-04-27T03:10:50.312Z,12.17
2019-04-27T03:13:26.340Z,9.13
2019-04-27T03:16:02.131Z,9.67
2019-04-27T03:18:32.793Z,7.33
2019-04-27T03:21:03.230Z,7.27
2019-04-27T03:23:31.757Z,9.23
2019-04-27T03:26:13.754Z,7.40
2019-04-27T03:28:42.140Z,10.10
2019-04-27T03:31:13.400Z,11.77
2019-04-27T03:33:42.809Z,8.77
2019-04-27T03:36:12.855Z,7.50
2019-04-27T03:38:40.660Z,7.43
2019-04-27T03:41:09.556Z,9.80
2019-04-27T03:43:40.136Z,10.60
2019-04-27T03:46:10.313Z,9.20
2019-04-27T03:48:40.463Z,8.43
2019-04-27T03:51:19.962Z,11.00
2019-04-27T03:53:56.851Z,9.97
2019-04-27T03:56:24.780Z,8.50
2019-04-27T03:58:54.824Z,8.63
2019-04-27T04:01:23.206Z,11.17
2019-04-27T04:03:51.618Z,13.30
2019-04-27T04:06:20.023Z,9.70
2019-04-27T04:08:50.262Z,9.13
2019-04-27T04:11:22.859Z,10.53
2019-04-27T04:14:00.164Z,6.93
2019-04-27T04:16:36.125Z,8.23
2019-04-27T04:19:06.181Z,10.20
2019-04-27T04:21:34.588Z,9.20
2019-04-27T04:24:02.983Z,12.53
2019-04-27T04:26:33.028Z,9.03
2019-04-27T04:29:01.595Z,10.07
2019-04-27T04:31:33.165Z,10.63
2019-04-27T04:34:00.086Z,9.93
2019-04-27T04:36:30.140Z,10.77
2019-04-27T04:39:00.519Z,9.50
2019-04-27T04:41:36.019Z,11.53
2019-04-27T04:44:12.545Z,8.03
2019-04-27T04:47:00.087Z,11.70
2019-04-27T04:49:29.604Z,15.60
2019-04-27T04:51:59.478Z,14.17
2019-04-27T04:54:30.020Z,10.00
2019-04-27T04:56:59.451Z,11.60
2019-04-27T04:59:29.128Z,10.83
2019-04-27T05:02:00.262Z,13.23
2019-04-27T05:04:29.196Z,11.10
2019-04-27T05:06:59.248Z,11.37
2019-04-27T05:09:29.392Z,11.23
2019-04-27T05:11:58.769Z,14.60
2019-04-27T05:14:28.877Z,13.67
2019-04-27T05:16:59.040Z,9.33
2019-04-27T05:19:28.803Z,9.70
2019-04-27T05:21:59.162Z,14.30
2019-04-27T05:24:29.097Z,12.07
2019-04-27T05:26:59.064Z,10.67
2019-04-27T05:29:29.118Z,11.13
2019-04-27T05:31:59.185Z,12.37
2019-04-27T05:34:29.390Z,13.33
2019-04-27T05:36:59.322Z,9.23
2019-04-27T05:39:30.013Z,14.77
2019-04-27T05:41:59.772Z,12.27
2019-04-27T05:44:33.270Z,11.63
2019-04-27T05:47:05.295Z,13.87
2019-04-27T05:49:44.232Z,14.03
2019-04-27T05:52:29.596Z,11.57
2019-04-27T05:54:59.005Z,9.93
2019-04-27T05:57:30.803Z,12.27
2019-04-27T05:59:58.923Z,10.70
2019-04-27T06:02:30.256Z,13.10
2019-04-27T06:05:00.073Z,14.97
2019-04-27T06:07:30.359Z,18.80
2019-04-27T06:09:59.859Z,10.73
2019-04-27T06:12:29.719Z,13.33
2019-04-27T06:14:59.934Z,12.77
2019-04-27T06:17:29.852Z,11.77
2019-04-27T06:19:59.482Z,13.27
2019-04-27T06:22:29.279Z,10.43
2019-04-27T06:24:59.700Z,12.47
2019-04-27T06:27:30.752Z,11.10
2019-04-27T06:29:59.293Z,10.87
2019-04-27T06:32:29.572Z,7.80
2019-04-27T06:34:59.030Z,11.47
2019-04-27T06:37:29.311Z,12.43
2019-04-27T06:39:59.434Z,8.20
2019-04-27T06:42:29.565Z,10.10
2019-04-27T06:44:59.688Z,9.80
2019-04-27T06:47:29.505Z,11.70
2019-04-27T06:49:58.718Z,8.33
2019-04-27T06:52:28.939Z,10.30
2019-04-27T06:54:57.387Z,11.30
2019-04-27T06:57:25.769Z,18.73
2019-04-27T06:59:54.214Z,11.50
2019-04-27T07:02:22.596Z,17.17
2019-04-27T07:04:51.005Z,10.33
2019-04-27T07:07:19.558Z,13.63
2019-04-27T07:09:49.282Z,12.70
2019-04-27T07:12:19.047Z,15.73
2019-04-27T07:14:54.417Z,19.60
2019-04-27T07:17:19.051Z,14.43
2019-04-27T07:19:49.578Z,16.10
2019-04-27T07:22:17.795Z,18.93
2019-04-27T07:24:46.190Z,18.43
2019-04-27T07:27:14.696Z,20.07
2019-04-27T07:29:44.669Z,15.43
2019-04-27T07:32:13.309Z,19.47
2019-04-27T07:34:41.759Z,18.10
2019-04-27T07:37:11.128Z,18.77
2019-04-27T07:39:39.797Z,18.30
2019-04-27T07:42:08.632Z,18.43
2019-04-27T07:44:39.132Z,18.87
2019-04-27T07:47:30.734Z,17.70
2019-04-27T07:49:59.245Z,22.57
2019-04-27T07:52:28.683Z,20.37
2019-04-27T07:54:58.661Z,18.83
2019-04-27T07:57:28.840Z,24.17
2019-04-27T07:59:57.214Z,18.03
2019-04-27T08:02:25.599Z,22.23
2019-04-27T08:04:54.013Z,20.13
2019-04-27T08:07:22.420Z,17.03
2019-04-27T08:09:50.868Z,19.90
2019-04-27T08:12:20.888Z,16.17
2019-04-27T08:14:49.533Z,15.57
2019-04-27T08:17:19.181Z,10.10
2019-04-27T08:19:49.386Z,12.27
2019-04-27T08:22:19.456Z,14.03
2019-04-27T08:24:49.596Z,13.77
2019-04-27T08:27:19.685Z,22.30
2019-04-27T08:29:55.743Z,11.67
2019-04-27T08:32:31.810Z,15.07
2019-04-27T08:35:00.220Z,16.43
2019-04-27T08:37:28.713Z,18.60
2019-04-27T08:39:57.138Z,16.53
2019-04-27T08:42:25.531Z,17.87
2019-04-27T08:44:53.972Z,20.43
2019-04-27T08:47:22.388Z,18.30
2019-04-27T08:49:50.766Z,19.47
2019-04-27T08:52:19.465Z,21.83
2019-04-27T08:54:49.291Z,22.33
2019-04-27T08:57:18.830Z,21.47
2019-04-27T08:59:49.270Z,24.60
2019-04-27T09:02:17.563Z,17.40
2019-04-27T09:04:45.976Z,17.77
2019-04-27T09:07:29.448Z,18.40
2019-04-27T09:10:18.780Z,21.63
2019-04-27T09:12:50.079Z,21.20
2019-04-27T09:15:23.533Z,19.43
2019-04-27T09:17:58.908Z,23.63
2019-04-27T09:20:29.036Z,24.33
2019-04-27T09:22:59.149Z,14.20
2019-04-27T09:25:29.460Z,23.90
2019-04-27T09:27:59.586Z,17.70
2019-04-27T09:30:29.615Z,16.93
2019-04-27T09:32:58.023Z,12.27
2019-04-27T09:35:26.493Z,13.00
2019-04-27T09:37:56.309Z,14.47
2019-04-27T09:40:26.633Z,12.80
2019-04-27T09:42:54.900Z,21.97
2019-04-27T09:45:23.385Z,16.97
2019-04-27T09:47:51.789Z,22.13
2019-04-27T09:50:20.269Z,13.90
2019-04-27T09:52:48.701Z,20.27
2019-04-27T09:55:17.098Z,19.07
2019-04-27T09:57:46.604Z,16.93
2019-04-27T10:00:15.968Z,21.57
2019-04-27T10:02:46.428Z,14.97
2019-04-27T10:05:17.182Z,14.00
2019-04-27T10:07:45.722Z,13.23
2019-04-27T10:10:15.851Z,22.37
2019-04-27T10:12:44.328Z,23.97
2019-04-27T10:15:12.754Z,16.63
2019-04-27T10:17:41.177Z,21.37
2019-04-27T10:20:09.642Z,18.97
2019-04-27T10:22:41.257Z,18.43
2019-04-27T10:25:09.773Z,20.17
2019-04-27T10:27:38.164Z,19.47
2019-04-27T10:30:09.715Z,18.03
2019-04-27T10:32:38.098Z,24.20
2019-04-27T10:35:07.693Z,22.17
2019-04-27T10:37:38.067Z,16.17
2019-04-27T10:40:06.485Z,19.17
2019-04-27T10:42:35.876Z,16.43
2019-04-27T10:45:06.384Z,12.33
2019-04-27T10:47:36.029Z,12.03
2019-04-27T10:50:06.002Z,16.33
2019-04-27T10:52:34.450Z,11.90
2019-04-27T10:55:05.993Z,7.80
2019-04-27T10:57:34.834Z,7.77
2019-04-27T11:00:04.426Z,13.03
2019-04-27T11:02:32.845Z,9.13
2019-04-27T11:05:06.820Z,5.73
2019-04-27T11:07:37.347Z,7.43
2019-04-27T11:10:07.665Z,5.10
2019-04-27T11:12:36.325Z,6.87
2019-04-27T11:15:07.744Z,6.87
2019-04-27T11:17:37.089Z,11.97
2019-04-27T11:20:07.594Z,13.93
2019-04-27T11:22:36.401Z,10.20
2019-04-27T11:25:06.847Z,10.50
2019-04-27T11:27:35.316Z,13.40
2019-04-27T11:30:06.722Z,9.10
2019-04-27T11:32:35.486Z,10.23
2019-04-27T11:35:21.582Z,9.43
2019-04-27T11:37:55.691Z,9.80
2019-04-27T11:40:24.134Z,7.20
2019-04-27T11:42:52.599Z,6.30
2019-04-27T11:45:21.058Z,8.40
2019-04-27T11:47:49.451Z,5.67
2019-04-27T11:50:18.052Z,8.30
2019-04-27T11:52:46.414Z,7.10
2019-04-27T11:55:16.054Z,9.60
2019-04-27T11:57:44.606Z,7.27
2019-04-27T12:00:16.508Z,9.47
2019-04-27T12:02:45.719Z,6.90
2019-04-27T12:05:15.961Z,8.83
2019-04-27T12:07:47.436Z,6.90
2019-04-27T12:10:15.839Z,9.30
2019-04-27T12:12:46.199Z,8.30
2019-04-27T12:15:15.990Z,8.07
2019-04-27T12:17:46.083Z,9.00
2019-04-27T12:20:16.043Z,9.43
2019-04-27T12:22:44.793Z,9.27
2019-04-27T12:25:13.185Z,12.10
2019-04-27T12:27:59.465Z,8.93
2019-04-27T12:30:44.443Z,8.27
2019-04-27T12:33:12.892Z,6.83
2019-04-27T12:35:41.291Z,9.60
2019-04-27T12:38:09.688Z,10.43
2019-04-27T12:40:38.087Z,13.13
2019-04-27T12:43:06.479Z,7.50
2019-04-27T12:45:36.656Z,8.73
2019-04-27T12:48:04.916Z,9.10
2019-04-27T12:50:33.319Z,13.30
2019-04-27T12:53:03.338Z,10.67
2019-04-27T12:55:33.471Z,8.27
2019-04-27T12:58:18.787Z,11.40
2019-04-27T13:00:48.815Z,10.20
2019-04-27T13:03:17.232Z,9.43
2019-04-27T13:05:45.678Z,12.57
2019-04-27T13:08:14.096Z,11.00
2019-04-27T13:10:42.509Z,11.70
2019-04-27T13:13:10.897Z,7.27
2019-04-27T13:15:39.286Z,8.97
2019-04-27T13:18:08.054Z,12.50
2019-04-27T13:20:36.391Z,9.63
2019-04-27T13:23:04.764Z,9.90
2019-04-27T13:25:33.176Z,11.37
2019-04-27T13:28:01.544Z,8.33
2019-04-27T13:30:29.934Z,14.87
2019-04-27T13:32:58.318Z,11.23
2019-04-27T13:35:26.788Z,12.60
2019-04-27T13:37:55.980Z,12.73
2019-04-27T13:40:25.909Z,11.97
2019-04-27T13:43:14.334Z,11.30
2019-04-27T13:46:00.542Z,14.73
2019-04-27T13:48:47.114Z,8.63
2019-04-27T13:51:17.158Z,12.60
2019-04-27T13:53:45.627Z,14.87
2019-04-27T13:56:17.440Z,16.43
2019-04-27T13:58:46.097Z,11.23
2019-04-27T14:01:14.495Z,12.43
2019-04-27T14:03:45.006Z,12.90
2019-04-27T14:06:12.983Z,13.67
2019-04-27T14:08:41.383Z,11.60
2019-04-27T14:11:09.803Z,10.30
2019-04-27T14:13:39.094Z,11.77
2019-04-27T14:16:08.672Z,12.27
2019-04-27T14:18:38.458Z,10.83
2019-04-27T14:21:07.030Z,10.57
2019-04-27T14:23:35.441Z,12.77
2019-04-27T14:26:03.821Z,10.90
2019-04-27T14:28:32.270Z,11.40
2019-04-27T14:31:00.696Z,11.70
2019-04-27T14:33:29.088Z,11.87
2019-04-27T14:35:59.230Z,14.50
2019-04-27T14:38:27.635Z,16.67
2019-04-27T14:40:56.057Z,13.93
2019-04-27T14:43:24.443Z,11.37
2019-04-27T14:45:52.850Z,11.53
2019-04-27T14:48:21.259Z,10.57
2019-04-27T14:50:49.636Z,10.27
2019-04-27T14:53:18.094Z,10.17
2019-04-27T14:55:46.541Z,15.87
2019-04-27T14:58:14.955Z,14.73
2019-04-27T15:00:43.367Z,14.17
2019-04-27T15:03:11.769Z,11.03
2019-04-27T15:05:40.187Z,9.97
2019-04-27T15:08:09.866Z,12.17
2019-04-27T15:10:38.380Z,14.90
2019-04-27T15:13:08.270Z,11.77
2019-04-27T15:15:37.235Z,12.67
2019-04-27T15:18:05.720Z,12.63
2019-04-27T15:20:46.585Z,11.47
2019-04-27T15:23:14.671Z,12.43
2019-04-27T15:25:46.818Z,11.23
2019-04-27T15:28:17.629Z,18.27
2019-04-27T15:30:53.122Z,19.23
2019-04-27T15:33:39.418Z,16.50
2019-04-27T15:36:22.806Z,13.13
2019-04-27T15:41:49.578Z,10.30
2019-04-27T15:44:18.747Z,14.80
2019-04-27T15:46:47.923Z,11.83
2019-04-27T15:49:17.941Z,8.53
2019-04-27T15:51:46.547Z,6.50
2019-04-27T15:54:14.969Z,5.63
2019-04-27T15:56:43.362Z,6.77
2019-04-27T15:59:11.775Z,7.23
2019-04-27T16:01:40.211Z,9.73
2019-04-27T16:04:11.232Z,6.77
2019-04-27T16:06:42.456Z,15.53
2019-04-27T16:09:10.321Z,9.37
2019-04-27T16:11:38.722Z,7.77
2019-04-27T16:14:07.876Z,11.80
2019-04-27T16:16:38.138Z,11.77
2019-04-27T16:19:10.217Z,16.37
2019-04-27T16:21:41.496Z,9.40
2019-04-27T16:24:08.362Z,12.23
2019-04-27T16:26:36.504Z,10.07
2019-04-27T16:29:04.909Z,13.87
2019-04-27T16:31:36.027Z,7.07
2019-04-27T16:34:03.371Z,11.30
2019-04-27T16:36:31.815Z,7.50
2019-04-27T16:39:03.607Z,9.10
2019-04-27T16:41:32.948Z,9.57
2019-04-27T16:44:02.363Z,9.17
2019-04-27T16:46:34.774Z,9.03
2019-04-27T16:49:01.534Z,11.97
2019-04-27T16:51:36.564Z,11.43
2019-04-27T16:54:00.363Z,6.40
2019-04-27T16:56:28.828Z,8.83
2019-04-27T16:59:05.422Z,9.23
2019-04-27T17:01:30.400Z,10.53
2019-04-27T17:03:59.561Z,6.87
2019-04-27T17:06:29.588Z,12.10
2019-04-27T17:09:05.634Z,10.20
2019-04-27T17:11:29.745Z,7.73
2019-04-27T17:14:00.139Z,9.80
2019-04-27T17:16:35.610Z,9.33
2019-04-27T17:19:20.647Z,11.47
2019-04-27T17:21:49.011Z,10.20
2019-04-27T17:24:19.058Z,8.23
2019-04-27T17:26:47.882Z,10.13
2019-04-27T17:29:20.246Z,9.73
2019-04-27T17:31:50.585Z,7.83
2019-04-27T17:34:25.335Z,10.30
2019-04-27T17:36:54.506Z,9.50
2019-04-27T17:39:23.443Z,8.03
2019-04-27T17:41:52.766Z,8.93
2019-04-27T17:44:23.166Z,11.33
2019-04-27T17:46:51.274Z,12.30
2019-04-27T17:49:19.813Z,14.67
2019-04-27T17:51:48.519Z,11.97
2019-04-27T17:54:18.191Z,12.70
2019-04-27T17:56:49.593Z,13.97
2019-04-27T17:59:20.597Z,10.87
2019-04-27T18:01:46.930Z,12.40
2019-04-27T18:04:15.337Z,8.17
2019-04-27T18:06:43.718Z,9.77
2019-04-27T18:09:13.744Z,8.33
2019-04-27T18:11:42.348Z,8.77
2019-04-27T18:14:14.378Z,6.77
2019-04-27T18:16:40.779Z,7.33
2019-04-27T18:19:19.584Z,9.63
2019-04-27T18:22:01.562Z,10.73
2019-04-27T18:24:31.619Z,11.23
2019-04-27T18:27:04.586Z,14.83
2019-04-27T18:29:32.948Z,11.83
2019-04-27T18:32:01.409Z,11.10
2019-04-27T18:34:29.847Z,7.57
2019-04-27T18:36:58.258Z,12.43
2019-04-27T18:39:26.649Z,9.77
2019-04-27T18:41:55.035Z,8.07
2019-04-27T18:44:23.852Z,5.40
2019-04-27T18:46:57.819Z,8.13
2019-04-27T18:49:31.161Z,8.63
2019-04-27T18:52:04.461Z,8.03
2019-04-27T18:54:33.103Z,5.87
2019-04-27T18:57:02.745Z,7.57
2019-04-27T18:59:31.310Z,5.97
2019-04-27T19:01:59.695Z,10.77
2019-04-27T19:04:28.221Z,10.10
2019-04-27T19:06:59.835Z,6.40
2019-04-27T19:09:26.611Z,9.73
2019-04-27T19:11:56.737Z,6.90
2019-04-27T19:14:25.076Z,11.00
2019-04-27T19:16:53.472Z,10.73
2019-04-27T19:19:21.886Z,9.97
2019-04-27T19:21:50.287Z,9.00
2019-04-27T19:24:19.185Z,8.53
2019-04-27T19:26:49.422Z,6.93
2019-04-27T19:29:29.255Z,8.23
2019-04-27T19:31:59.555Z,8.87
2019-04-27T19:34:28.621Z,8.20
2019-04-27T19:36:59.077Z,11.50
2019-04-27T19:39:28.552Z,4.27
2019-04-27T19:42:01.406Z,6.60
2019-04-27T19:44:28.995Z,7.43
2019-04-27T19:46:57.340Z,7.37
2019-04-27T19:49:25.755Z,10.13
2019-04-27T19:51:54.144Z,6.27
2019-04-27T19:54:22.564Z,8.67
2019-04-27T19:56:50.943Z,7.67
2019-04-27T19:59:21.060Z,5.70
2019-04-27T20:01:51.093Z,10.87
2019-04-27T20:04:21.160Z,5.93
2019-04-27T20:06:49.582Z,8.03
2019-04-27T20:09:22.601Z,9.83
2019-04-27T20:11:51.015Z,6.67
2019-04-27T20:14:20.824Z,5.93
2019-04-27T20:16:49.458Z,7.40
2019-04-27T20:19:17.831Z,9.63
2019-04-27T20:21:46.240Z,11.97
2019-04-27T20:24:14.678Z,7.90
2019-04-27T20:26:43.058Z,8.07
2019-04-27T20:29:11.900Z,10.10
2019-04-27T20:31:41.072Z,9.70
2019-04-27T20:34:09.681Z,12.27
2019-04-27T20:36:38.032Z,8.20
2019-04-27T20:39:06.836Z,7.63
2019-04-27T20:41:35.216Z,8.27
2019-04-27T20:44:03.956Z,7.77
2019-04-27T20:46:32.358Z,13.47
2019-04-27T20:49:02.415Z,10.33
2019-04-27T20:51:51.077Z,7.93
2019-04-27T20:54:20.816Z,10.93
2019-04-27T20:56:49.222Z,8.20
2019-04-27T20:59:17.603Z,8.33
2019-04-27T21:01:46.019Z,6.40
2019-04-27T21:04:16.277Z,6.67
2019-04-27T21:06:46.323Z,10.37
2019-04-27T21:09:16.377Z,13.33
2019-04-27T21:11:46.527Z,13.67
2019-04-27T21:14:15.094Z,5.63
2019-04-27T21:16:43.560Z,8.73
2019-04-27T21:19:11.952Z,6.33
2019-04-27T21:21:42.648Z,10.30
2019-04-27T21:24:10.777Z,5.77
2019-04-27T21:26:39.181Z,8.80
2019-04-27T21:29:07.587Z,5.63
2019-04-27T21:31:36.031Z,9.87
2019-04-27T21:34:04.439Z,6.37
2019-04-27T21:36:32.814Z,6.07
2019-04-27T21:39:01.559Z,5.33
2019-04-27T21:41:31.180Z,8.77
2019-04-27T21:44:01.306Z,9.27
2019-04-27T21:46:31.653Z,7.53
2019-04-27T21:49:00.876Z,10.17
2019-04-27T21:51:29.956Z,6.30
2019-04-27T21:53:59.967Z,7.53
2019-04-27T21:56:28.424Z,8.90
2019-04-27T21:58:56.835Z,8.43
2019-04-27T22:01:31.664Z,9.40
2019-04-27T22:04:01.024Z,11.33
2019-04-27T22:06:29.589Z,8.67
2019-04-27T22:08:57.965Z,4.73
2019-04-27T22:11:26.404Z,8.37
2019-04-27T22:13:54.798Z,8.87
2019-04-27T22:16:23.177Z,5.87
2019-04-27T22:18:52.066Z,11.30
2019-04-27T22:21:21.589Z,10.67
2019-04-27T22:23:57.827Z,5.37
2019-04-27T22:26:26.193Z,10.30
2019-04-27T22:28:54.604Z,5.00
2019-04-27T22:31:22.979Z,7.60
2019-04-27T22:33:54.416Z,4.87
2019-04-27T22:36:22.376Z,6.90
2019-04-27T22:38:51.588Z,6.87
2019-04-27T22:41:31.386Z,4.07
2019-04-27T22:44:11.517Z,5.87
2019-04-27T22:46:41.813Z,3.93
2019-04-27T22:49:10.934Z,5.93
2019-04-27T22:51:41.201Z,6.10
2019-04-27T22:54:11.495Z,5.67
2019-04-27T22:56:42.195Z,6.90
2019-04-27T22:59:31.664Z,6.00
2019-04-27T23:02:04.737Z,4.17
2019-04-27T23:04:41.161Z,6.30
2019-04-27T23:07:11.082Z,9.13
2019-04-27T23:09:40.768Z,6.13
2019-04-27T23:12:11.871Z,6.10
2019-04-27T23:14:41.490Z,7.47
2019-04-27T23:17:31.558Z,4.03
2019-04-27T23:20:01.393Z,3.37
2019-04-27T23:22:31.537Z,5.77
2019-04-27T23:25:01.067Z,4.67
2019-04-27T23:27:29.607Z,8.00
2019-04-27T23:29:58.007Z,4.17
2019-04-27T23:32:28.030Z,6.57
2019-04-27T23:34:56.441Z,4.53
2019-04-27T23:37:24.846Z,6.83
2019-04-27T23:39:53.218Z,3.90
2019-04-27T23:42:21.732Z,5.63
2019-04-27T23:44:50.219Z,5.77
2019-04-27T23:47:19.541Z,2.53
2019-04-27T23:49:47.895Z,7.73
2019-04-27T23:52:17.979Z,2.97
2019-04-27T23:54:46.368Z,10.93
2019-04-27T23:57:14.739Z,12.23
2019-04-27T23:59:43.141Z,4.33
